Time,TemperatureF,DewpointF,PressureIn,WindDirection,WindDirectionDegrees,WindSpeedMPH,WindSpeedGustMPH,Humidity,HourlyPrecipIn,Conditions,Clouds,dailyrainin,SolarRadiationWatts/m^2,SoftwareType,DateUTC
2013-01-21 00:02:00,35.0,12.0,-100.00,NNW,343,0.0,15.0,38,0.00,,,0.00,0.000000,,2013-01-21 07:02:00,
2013-01-21 00:33:00,33.0,13.0,-100.00,NNW,333,0.0,14.0,44,0.00,,,0.00,0.000000,,2013-01-21 07:33:00,
2013-01-21 00:42:00,33.0,13.0,-100.00,NNW,333,0.0,14.0,44,0.00,,,0.00,0.000000,,2013-01-21 07:42:00,
2013-01-21 00:53:00,33.0,13.0,-100.00,NNW,333,0.0,14.0,44,0.00,,,0.00,0.000000,,2013-01-21 07:53:00,
2013-01-21 01:02:00,33.0,13.0,-100.00,NNW,333,0.0,14.0,44,0.00,,,0.00,0.000000,,2013-01-21 08:02:00,
2013-01-21 01:23:00,34.0,11.0,-100.00,WNW,293,0.0,6.0,38,0.00,,,0.00,0.000000,,2013-01-21 08:23:00,
2013-01-21 01:33:00,34.0,11.0,-100.00,WNW,293,0.0,6.0,38,0.00,,,0.00,0.000000,,2013-01-21 08:33:00,
2013-01-21 01:43:00,34.0,11.0,-100.00,WNW,293,0.0,6.0,38,0.00,,,0.00,0.000000,,2013-01-21 08:43:00,
2013-01-21 01:53:00,34.0,11.0,-100.00,WNW,293,0.0,6.0,38,0.00,,,0.00,0.000000,,2013-01-21 08:53:00,
2013-01-21 02:02:00,34.0,11.0,-100.00,WNW,293,0.0,6.0,38,0.00,,,0.00,0.000000,,2013-01-21 09:02:00,
2013-01-21 02:33:00,36.0,13.0,-100.00,NW,324,1.0,3.0,39,0.00,,,0.00,0.000000,,2013-01-21 09:33:00,
2013-01-21 02:43:00,36.0,13.0,-100.00,NW,324,1.0,3.0,39,0.00,,,0.00,0.000000,,2013-01-21 09:43:00,
2013-01-21 02:53:00,36.0,13.0,-100.00,NW,324,1.0,3.0,39,0.00,,,0.00,0.000000,,2013-01-21 09:53:00,
2013-01-21 03:02:00,36.0,13.0,-100.00,NW,324,1.0,3.0,39,0.00,,,0.00,0.000000,,2013-01-21 10:02:00,
2013-01-21 03:33:00,36.0,12.0,-100.00,NNW,348,1.0,7.0,37,0.00,,,0.00,0.000000,,2013-01-21 10:33:00,
2013-01-21 03:43:00,36.0,12.0,-100.00,NNW,348,1.0,7.0,37,0.00,,,0.00,0.000000,,2013-01-21 10:43:00,
2013-01-21 03:52:00,36.0,12.0,-100.00,NNW,348,1.0,7.0,37,0.00,,,0.00,0.000000,,2013-01-21 10:52:00,
2013-01-21 04:02:00,36.0,12.0,-100.00,NNW,348,1.0,7.0,37,0.00,,,0.00,0.000000,,2013-01-21 11:02:00,
2013-01-21 04:33:00,38.0,13.0,-100.00,West,275,6.0,11.0,36,0.00,,,0.00,0.000000,,2013-01-21 11:33:00,
2013-01-21 04:43:00,38.0,13.0,-100.00,West,275,6.0,11.0,36,0.00,,,0.00,0.000000,,2013-01-21 11:43:00,
2013-01-21 04:53:00,38.0,13.0,-100.00,West,275,6.0,11.0,36,0.00,,,0.00,0.000000,,2013-01-21 11:53:00,
2013-01-21 05:02:00,38.0,13.0,-100.00,West,275,6.0,11.0,36,0.00,,,0.00,0.000000,,2013-01-21 12:02:00,
2013-01-21 05:23:00,38.0,13.0,-100.00,West,262,5.0,17.0,36,0.00,,,0.00,0.000000,,2013-01-21 12:23:00,
2013-01-21 05:33:00,38.0,13.0,-100.00,West,262,5.0,17.0,36,0.00,,,0.00,0.000000,,2013-01-21 12:33:00,
2013-01-21 05:43:00,38.0,13.0,-100.00,West,262,5.0,17.0,36,0.00,,,0.00,0.000000,,2013-01-21 12:43:00,
2013-01-21 05:53:00,38.0,13.0,-100.00,West,262,5.0,17.0,36,0.00,,,0.00,0.000000,,2013-01-21 12:53:00,
2013-01-21 06:02:00,38.0,13.0,-100.00,West,262,5.0,17.0,36,0.00,,,0.00,0.000000,,2013-01-21 13:02:00,
2013-01-21 06:33:00,38.0,13.0,-100.00,NNW,337,7.0,16.0,35,0.00,,,0.00,0.000000,,2013-01-21 13:33:00,
2013-01-21 06:43:00,38.0,13.0,-100.00,NNW,337,7.0,16.0,35,0.00,,,0.00,0.000000,,2013-01-21 13:43:00,
2013-01-21 06:53:00,38.0,13.0,-100.00,NNW,337,7.0,16.0,35,0.00,,,0.00,0.000000,,2013-01-21 13:53:00,
2013-01-21 07:02:00,38.0,13.0,-100.00,NNW,337,7.0,16.0,35,0.00,,,0.00,0.000000,,2013-01-21 14:02:00,
2013-01-21 07:03:00,38.0,12.0,-100.00,WNW,290,6.0,17.0,34,0.00,,,0.00,0.000000,,2013-01-21 14:03:00,
2013-01-21 07:33:00,38.0,12.0,-100.00,WNW,290,6.0,17.0,34,0.00,,,0.00,0.000000,,2013-01-21 14:33:00,
2013-01-21 07:43:00,38.0,12.0,-100.00,WNW,290,6.0,17.0,34,0.00,,,0.00,0.000000,,2013-01-21 14:43:00,
2013-01-21 07:53:00,38.0,12.0,-100.00,WNW,290,6.0,17.0,34,0.00,,,0.00,0.000000,,2013-01-21 14:53:00,
2013-01-21 08:03:00,38.0,11.0,-100.00,NE,47,5.0,16.0,33,0.00,,,0.00,3.000000,,2013-01-21 15:03:00,
2013-01-21 08:33:00,38.0,11.0,-100.00,NE,47,5.0,16.0,33,0.00,,,0.00,3.000000,,2013-01-21 15:33:00,
2013-01-21 08:43:00,38.0,11.0,-100.00,NE,47,5.0,16.0,33,0.00,,,0.00,3.000000,,2013-01-21 15:43:00,
2013-01-21 08:53:00,38.0,11.0,-100.00,NE,47,5.0,16.0,33,0.00,,,0.00,3.000000,,2013-01-21 15:53:00,
2013-01-21 09:33:00,39.0,9.0,-100.00,ENE,57,3.0,15.0,29,0.00,,,0.00,27.000000,,2013-01-21 16:33:00,
2013-01-21 09:43:00,39.0,9.0,-100.00,ENE,57,3.0,15.0,29,0.00,,,0.00,27.000000,,2013-01-21 16:43:00,
2013-01-21 09:53:00,39.0,9.0,-100.00,ENE,57,3.0,15.0,29,0.00,,,0.00,27.000000,,2013-01-21 16:53:00,
2013-01-21 10:02:00,39.0,9.0,-100.00,ENE,57,3.0,15.0,29,0.00,,,0.00,27.000000,,2013-01-21 17:02:00,
2013-01-21 10:33:00,48.0,8.0,-100.00,SSE,163,4.0,11.0,19,0.00,,,0.00,237.000000,,2013-01-21 17:33:00,
2013-01-21 10:43:00,48.0,8.0,-100.00,SSE,163,4.0,11.0,19,0.00,,,0.00,237.000000,,2013-01-21 17:43:00,
2013-01-21 10:53:00,48.0,8.0,-100.00,SSE,163,4.0,11.0,19,0.00,,,0.00,237.000000,,2013-01-21 17:53:00,
2013-01-21 11:02:00,48.0,8.0,-100.00,SSE,163,4.0,11.0,19,0.00,,,0.00,237.000000,,2013-01-21 18:02:00,
2013-01-21 11:33:00,55.0,5.0,-100.00,NW,325,6.0,15.0,13,0.00,,,0.00,416.000000,,2013-01-21 18:33:00,
2013-01-21 11:43:00,55.0,5.0,-100.00,NW,325,6.0,15.0,13,0.00,,,0.00,416.000000,,2013-01-21 18:43:00,
2013-01-21 11:53:00,55.0,5.0,-100.00,NW,325,6.0,15.0,13,0.00,,,0.00,416.000000,,2013-01-21 18:53:00,
2013-01-21 12:02:00,55.0,5.0,-100.00,NW,325,6.0,15.0,13,0.00,,,0.00,416.000000,,2013-01-21 19:02:00,
2013-01-21 12:23:00,60.0,5.0,-100.00,NW,313,6.0,15.0,11,0.00,,,0.00,542.000000,,2013-01-21 19:23:00,
2013-01-21 12:33:00,60.0,5.0,-100.00,NW,313,6.0,15.0,11,0.00,,,0.00,542.000000,,2013-01-21 19:33:00,
2013-01-21 12:43:00,60.0,5.0,-100.00,NW,313,6.0,15.0,11,0.00,,,0.00,542.000000,,2013-01-21 19:43:00,
2013-01-21 12:53:00,60.0,5.0,-100.00,NW,313,6.0,15.0,11,0.00,,,0.00,542.000000,,2013-01-21 19:53:00,
2013-01-21 13:02:00,60.0,5.0,-100.00,NW,313,6.0,15.0,11,0.00,,,0.00,542.000000,,2013-01-21 20:02:00,
2013-01-21 13:33:00,60.0,3.0,-100.00,West,268,6.0,17.0,10,0.00,,,0.00,580.000000,,2013-01-21 20:33:00,
2013-01-21 13:43:00,60.0,3.0,-100.00,West,268,6.0,17.0,10,0.00,,,0.00,580.000000,,2013-01-21 20:43:00,
2013-01-21 13:53:00,60.0,3.0,-100.00,West,268,6.0,17.0,10,0.00,,,0.00,580.000000,,2013-01-21 20:53:00,
2013-01-21 14:02:00,60.0,3.0,-100.00,West,268,6.0,17.0,10,0.00,,,0.00,580.000000,,2013-01-21 21:02:00,
2013-01-21 14:33:00,61.0,6.0,-100.00,WNW,296,5.0,16.0,11,0.00,,,0.00,557.000000,,2013-01-21 21:33:00,
2013-01-21 14:43:00,61.0,6.0,-100.00,WNW,296,5.0,16.0,11,0.00,,,0.00,557.000000,,2013-01-21 21:43:00,
2013-01-21 14:53:00,61.0,6.0,-100.00,WNW,296,5.0,16.0,11,0.00,,,0.00,557.000000,,2013-01-21 21:53:00,
2013-01-21 15:02:00,61.0,6.0,-100.00,WNW,296,5.0,16.0,11,0.00,,,0.00,557.000000,,2013-01-21 22:02:00,
2013-01-21 15:23:00,62.0,5.0,-100.00,North,2,5.0,15.0,10,0.00,,,0.00,477.000000,,2013-01-21 22:23:00,
2013-01-21 15:33:00,62.0,5.0,-100.00,North,2,5.0,15.0,10,0.00,,,0.00,477.000000,,2013-01-21 22:33:00,
2013-01-21 15:43:00,62.0,5.0,-100.00,North,2,5.0,15.0,10,0.00,,,0.00,477.000000,,2013-01-21 22:43:00,
2013-01-21 15:53:00,62.0,5.0,-100.00,North,2,5.0,15.0,10,0.00,,,0.00,477.000000,,2013-01-21 22:53:00,
2013-01-21 16:02:00,62.0,5.0,-100.00,North,2,5.0,15.0,10,0.00,,,0.00,477.000000,,2013-01-21 23:02:00,
2013-01-21 16:33:00,55.0,5.0,-100.00,WNW,287,5.0,15.0,13,0.00,,,0.00,251.000000,,2013-01-21 23:33:00,
2013-01-21 16:43:00,55.0,5.0,-100.00,WNW,287,5.0,15.0,13,0.00,,,0.00,251.000000,,2013-01-21 23:43:00,
2013-01-21 16:53:00,55.0,5.0,-100.00,WNW,287,5.0,15.0,13,0.00,,,0.00,251.000000,,2013-01-21 23:53:00,
2013-01-21 17:02:00,55.0,5.0,-100.00,WNW,287,5.0,15.0,13,0.00,,,0.00,251.000000,,2013-01-22 00:02:00,
2013-01-21 17:23:00,52.0,7.0,-100.00,West,273,3.0,12.0,16,0.00,,,0.00,16.000000,,2013-01-22 00:23:00,
2013-01-21 17:33:00,52.0,7.0,-100.00,West,273,3.0,12.0,16,0.00,,,0.00,16.000000,,2013-01-22 00:33:00,
2013-01-21 17:43:00,52.0,7.0,-100.00,West,273,3.0,12.0,16,0.00,,,0.00,16.000000,,2013-01-22 00:43:00,
2013-01-21 17:53:00,52.0,7.0,-100.00,West,273,3.0,12.0,16,0.00,,,0.00,16.000000,,2013-01-22 00:53:00,
2013-01-21 18:02:00,52.0,7.0,-100.00,West,273,3.0,12.0,16,0.00,,,0.00,16.000000,,2013-01-22 01:02:00,
2013-01-21 18:23:00,47.0,10.0,-100.00,North,356,0.0,13.0,22,0.00,,,0.00,6.000000,,2013-01-22 01:23:00,
2013-01-21 18:33:00,47.0,10.0,-100.00,North,356,0.0,13.0,22,0.00,,,0.00,6.000000,,2013-01-22 01:33:00,
2013-01-21 18:43:00,47.0,10.0,-100.00,North,356,0.0,13.0,22,0.00,,,0.00,6.000000,,2013-01-22 01:43:00,
2013-01-21 18:52:00,47.0,10.0,-100.00,North,356,0.0,13.0,22,0.00,,,0.00,6.000000,,2013-01-22 01:52:00,
2013-01-21 19:02:00,47.0,10.0,-100.00,North,356,0.0,13.0,22,0.00,,,0.00,6.000000,,2013-01-22 02:02:00,
2013-01-21 19:33:00,43.0,9.0,-100.00,NNW,348,0.0,6.0,24,0.00,,,0.00,0.000000,,2013-01-22 02:33:00,
2013-01-21 19:43:00,43.0,9.0,-100.00,NNW,348,0.0,6.0,24,0.00,,,0.00,0.000000,,2013-01-22 02:43:00,
2013-01-21 19:53:00,43.0,9.0,-100.00,NNW,348,0.0,6.0,24,0.00,,,0.00,0.000000,,2013-01-22 02:53:00,
2013-01-21 20:02:00,43.0,9.0,-100.00,NNW,348,0.0,6.0,24,0.00,,,0.00,0.000000,,2013-01-22 03:02:00,
2013-01-21 20:22:00,43.0,10.0,-100.00,SSE,153,3.0,5.0,25,0.00,,,0.00,0.000000,,2013-01-22 03:22:00,
2013-01-21 20:33:00,43.0,10.0,-100.00,SSE,153,3.0,5.0,25,0.00,,,0.00,0.000000,,2013-01-22 03:33:00,
2013-01-21 20:42:00,43.0,10.0,-100.00,SSE,153,3.0,5.0,25,0.00,,,0.00,0.000000,,2013-01-22 03:42:00,
2013-01-21 20:52:00,43.0,10.0,-100.00,SSE,153,3.0,5.0,25,0.00,,,0.00,0.000000,,2013-01-22 03:52:00,
2013-01-21 21:02:00,43.0,10.0,-100.00,SSE,153,3.0,5.0,25,0.00,,,0.00,0.000000,,2013-01-22 04:02:00,
2013-01-21 21:03:00,42.0,8.0,-100.00,North,9,3.0,11.0,24,0.00,,,0.00,0.000000,,2013-01-22 04:03:00,
2013-01-21 21:33:00,42.0,8.0,-100.00,North,9,3.0,11.0,24,0.00,,,0.00,0.000000,,2013-01-22 04:33:00,
2013-01-21 21:42:00,42.0,8.0,-100.00,North,9,3.0,11.0,24,0.00,,,0.00,0.000000,,2013-01-22 04:42:00,
2013-01-21 21:52:00,42.0,8.0,-100.00,North,9,3.0,11.0,24,0.00,,,0.00,0.000000,,2013-01-22 04:52:00,
2013-01-21 22:33:00,40.0,6.0,-100.00,NW,306,3.0,13.0,24,0.00,,,0.00,0.000000,,2013-01-22 05:33:00,
2013-01-21 22:43:00,40.0,6.0,-100.00,NW,306,3.0,13.0,24,0.00,,,0.00,0.000000,,2013-01-22 05:43:00,
2013-01-21 22:53:00,40.0,6.0,-100.00,NW,306,3.0,13.0,24,0.00,,,0.00,0.000000,,2013-01-22 05:53:00,
2013-01-21 23:02:00,40.0,6.0,-100.00,NW,306,3.0,13.0,24,0.00,,,0.00,0.000000,,2013-01-22 06:02:00,
2013-01-21 23:33:00,40.0,6.0,-100.00,NW,326,2.0,15.0,24,0.00,,,0.00,0.000000,,2013-01-22 06:33:00,
2013-01-21 23:43:00,40.0,6.0,-100.00,NW,326,2.0,15.0,24,0.00,,,0.00,0.000000,,2013-01-22 06:43:00,
2013-01-21 23:52:00,40.0,6.0,-100.00,NW,326,2.0,15.0,24,0.00,,,0.00,0.000000,,2013-01-22 06:52:00,